Time;durP1;ratioP1;P1;durP2;ratioP2;P2;SDS_P1;SDS_P2;PMS_P1;PMS_P2;Temp;Humidity;BMP_temperature;BMP_pressure;BME280_temperature;BME280_humidity;BME280_pressure;Samples;Min_cycle;Max_cycle;Signal;HPM_P1;HPM_P2
2021/06/22 00:01:33;;;;;;;13.57;6.90;;;;;;;17.13;78.23;96204.44;5116008;28;20040;-67
2021/06/22 00:03:59;;;;;;;15.10;9.07;;;;;;;17.10;78.34;96202.81;5115854;28;20080;-63
2021/06/22 00:06:25;;;;;;;12.10;6.93;;;;;;;17.07;77.79;96197.78;5116040;28;20038;-64
2021/06/22 00:08:50;;;;;;;11.98;8.30;;;;;;;17.00;78.57;96192.03;5115808;28;20019;-64
2021/06/22 00:11:16;;;;;;;14.82;7.15;;;;;;;16.98;78.10;96198.38;5115706;28;20035;-68
2021/06/22 00:13:41;;;;;;;15.50;8.07;;;;;;;17.00;78.13;96193.81;5115845;28;20058;-70
2021/06/22 00:16:07;;;;;;;17.80;6.68;;;;;;;17.04;77.99;96208.53;5115636;28;20531;-65
2021/06/22 00:18:33;;;;;;;7.00;6.25;;;;;;;17.02;77.70;96211.28;5115856;28;20490;-63
2021/06/22 00:20:58;;;;;;;8.82;6.82;;;;;;;17.08;77.57;96220.59;5115697;28;20381;-60
2021/06/22 00:23:24;;;;;;;19.33;7.35;;;;;;;17.11;77.08;96215.09;5115520;28;20024;-61
2021/06/22 00:25:50;;;;;;;12.32;6.88;;;;;;;17.09;76.75;96222.28;5115497;28;20022;-71
2021/06/22 00:28:16;;;;;;;11.85;6.38;;;;;;;17.05;76.79;96219.00;5115399;28;20373;-62
2021/06/22 00:30:41;;;;;;;15.35;6.95;;;;;;;17.04;77.16;96214.63;5115565;28;20054;-68
2021/06/22 00:33:07;;;;;;;17.75;9.52;;;;;;;16.94;77.90;96213.59;5115480;28;20426;-64
2021/06/22 00:35:32;;;;;;;8.82;7.10;;;;;;;16.95;78.13;96211.81;5115450;28;20027;-70
2021/06/22 00:37:58;;;;;;;10.65;8.98;;;;;;;16.95;78.99;96215.31;5115323;28;20384;-70
2021/06/22 00:40:24;;;;;;;21.13;8.30;;;;;;;16.97;79.46;96200.16;5115277;28;20028;-63
2021/06/22 00:42:49;;;;;;;23.80;10.32;;;;;;;16.81;80.34;96189.81;5115182;28;20031;-66
2021/06/22 00:45:26;;;;;;;16.77;8.90;;;;;;;16.77;81.22;96191.00;5115201;28;20110;-66
2021/06/22 00:47:51;;;;;;;14.32;9.60;;;;;;;16.80;80.37;96194.25;5115075;28;20030;-65
2021/06/22 00:50:17;;;;;;;11.18;6.60;;;;;;;16.83;78.98;96198.50;5115243;28;20020;-65
2021/06/22 00:52:43;;;;;;;16.80;10.52;;;;;;;16.82;79.22;96190.69;5115023;28;20381;-63
2021/06/22 00:55:12;;;;;;;8.32;7.40;;;;;;;16.82;79.16;96201.25;5115072;28;20031;-69
2021/06/22 00:57:41;;;;;;;14.63;7.43;;;;;;;16.83;79.01;96187.09;5114779;28;20020;-64
2021/06/22 01:00:09;;;;;;;16.60;7.75;;;;;;;16.85;78.38;96198.38;5114820;28;20081;-65
2021/06/22 01:02:35;;;;;;;15.98;8.30;;;;;;;16.88;78.20;96191.09;5113590;28;20042;-68
2021/06/22 01:05:01;;;;;;;9.45;5.82;;;;;;;16.87;77.60;96185.91;5114777;28;20023;-71
2021/06/22 01:07:27;;;;;;;17.17;7.00;;;;;;;16.81;77.89;96181.91;5114828;28;20028;-67
2021/06/22 01:09:55;;;;;;;12.68;6.50;;;;;;;16.84;77.52;96188.75;5114701;28;20038;-67
2021/06/22 01:12:20;;;;;;;15.25;6.97;;;;;;;16.81;77.14;96187.19;5114637;28;20462;-69
2021/06/22 01:14:46;;;;;;;15.75;6.07;;;;;;;16.78;76.63;96179.47;5114558;28;20022;-70
2021/06/22 01:17:12;;;;;;;12.20;6.40;;;;;;;16.79;76.44;96175.88;5114307;28;20524;-66
2021/06/22 01:19:37;;;;;;;14.27;7.57;;;;;;;16.73;77.10;96171.88;5114663;28;20027;-73
2021/06/22 01:22:05;;;;;;;13.75;6.82;;;;;;;16.66;77.58;96178.53;5114586;28;20024;-65
2021/06/22 01:24:32;;;;;;;13.23;6.90;;;;;;;16.66;76.97;96174.09;5114157;28;20063;-71
2021/06/22 01:26:59;;;;;;;16.73;6.82;;;;;;;16.67;77.13;96175.78;5114379;28;20030;-71
2021/06/22 01:29:25;;;;;;;12.15;6.68;;;;;;;16.71;77.17;96175.56;5114230;28;20028;-71
2021/06/22 01:31:52;;;;;;;13.48;7.10;;;;;;;16.68;76.93;96176.63;5114352;28;20470;-67
2021/06/22 01:34:29;;;;;;;13.63;6.30;;;;;;;16.68;77.04;96174.81;5114199;28;20015;-66
2021/06/22 01:36:56;;;;;;;12.38;6.60;;;;;;;16.70;76.65;96173.88;5114305;28;20112;-68
2021/06/22 01:39:22;;;;;;;10.68;5.68;;;;;;;16.69;76.37;96173.03;5114259;28;20019;-62
2021/06/22 01:41:48;;;;;;;18.02;6.93;;;;;;;16.67;75.66;96161.72;5114136;28;20377;-66
2021/06/22 01:44:14;;;;;;;11.25;6.22;;;;;;;16.52;76.70;96158.34;5113916;28;20023;-64
2021/06/22 01:46:39;;;;;;;15.50;5.72;;;;;;;16.48;76.93;96156.84;5113980;28;20055;-62
2021/06/22 01:49:05;;;;;;;16.85;6.50;;;;;;;16.43;76.44;96151.88;5114081;28;20054;-68
2021/06/22 01:51:31;;;;;;;12.75;5.65;;;;;;;16.45;76.21;96146.50;5113900;28;20023;-67
2021/06/22 01:53:59;;;;;;;10.05;5.35;;;;;;;16.42;76.57;96148.44;5113999;28;20040;-65
2021/06/22 01:56:29;;;;;;;20.25;7.57;;;;;;;16.34;76.47;96150.72;5113964;28;20031;-63
2021/06/22 01:58:55;;;;;;;13.18;6.10;;;;;;;16.33;76.25;96146.41;5113892;28;20081;-64
2021/06/22 02:01:21;;;;;;;10.73;6.32;;;;;;;16.23;76.89;96146.19;5113805;28;20024;-68
2021/06/22 02:03:47;;;;;;;17.02;6.20;;;;;;;16.15;76.59;96141.41;5113664;28;20031;-67
2021/06/22 02:06:14;;;;;;;18.60;8.70;;;;;;;16.13;77.52;96143.31;5113793;28;20094;-68
2021/06/22 02:08:40;;;;;;;10.95;6.50;;;;;;;16.15;77.18;96146.69;5113208;28;20102;-64
2021/06/22 02:11:06;;;;;;;16.83;7.38;;;;;;;16.17;76.86;96142.16;5113550;28;20045;-67
2021/06/22 02:13:32;;;;;;;16.30;6.78;;;;;;;16.12;76.80;96146.03;5113715;28;20028;-67
2021/06/22 02:15:58;;;;;;;12.35;7.57;;;;;;;16.03;77.10;96148.38;5113359;28;20019;-68
2021/06/22 02:18:27;;;;;;;20.15;7.97;;;;;;;16.01;77.45;96152.88;5113644;28;20028;-69
2021/06/22 02:20:53;;;;;;;16.90;6.57;;;;;;;16.00;77.39;96151.19;5113668;28;20051;-68
2021/06/22 02:23:19;;;;;;;9.55;6.93;;;;;;;15.92;78.11;96146.41;5113422;28;20020;-70
2021/06/22 02:25:45;;;;;;;9.13;7.20;;;;;;;15.92;78.09;96148.19;5113445;28;20035;-70
2021/06/22 02:28:19;;;;;;;11.20;8.15;;;;;;;15.93;78.12;96147.25;5113529;28;20020;-66
2021/06/22 02:30:45;;;;;;;22.35;7.10;;;;;;;15.95;78.04;96155.88;5113512;28;20028;-63
2021/06/22 02:33:11;;;;;;;11.35;6.90;;;;;;;15.94;77.87;96150.72;5113618;28;20489;-69
2021/06/22 02:35:37;;;;;;;10.05;6.97;;;;;;;15.98;77.38;96137.25;5113344;28;20027;-72
2021/06/22 02:38:03;;;;;;;9.98;5.80;;;;;;;15.99;77.53;96146.03;5113350;28;20024;-67
2021/06/22 02:40:29;;;;;;;11.07;5.18;;;;;;;16.01;77.47;96146.75;5113553;28;20020;-68
2021/06/22 02:42:56;;;;;;;15.88;6.63;;;;;;;15.98;77.43;96133.78;5113448;28;20020;-67
2021/06/22 02:45:22;;;;;;;13.45;6.88;;;;;;;15.99;77.53;96136.34;5113402;28;20016;-64
2021/06/22 02:47:48;;;;;;;13.35;8.18;;;;;;;15.92;78.18;96141.13;5113409;28;20027;-65
2021/06/22 02:50:16;;;;;;;11.68;6.40;;;;;;;15.92;78.13;96143.75;5113323;28;20103;-62
2021/06/22 02:52:42;;;;;;;15.15;8.05;;;;;;;15.96;78.45;96144.44;5113292;28;20043;-67
2021/06/22 02:55:18;;;;;;;10.10;6.13;;;;;;;15.99;78.06;96152.16;5113660;28;20020;-61
2021/06/22 02:57:45;;;;;;;7.97;6.65;;;;;;;15.98;77.41;96152.25;5113166;28;20457;-65
2021/06/22 03:00:12;;;;;;;8.10;6.07;;;;;;;15.99;77.25;96153.94;5113151;28;20027;-69
2021/06/22 03:02:38;;;;;;;8.82;5.20;;;;;;;16.01;77.01;96155.53;5113121;28;20016;-63
2021/06/22 03:05:04;;;;;;;13.60;6.60;;;;;;;15.92;77.21;96149.03;5113160;28;20032;-64
2021/06/22 03:07:30;;;;;;;12.60;7.25;;;;;;;15.82;78.79;96155.84;5113292;28;20088;-67
2021/06/22 03:09:55;;;;;;;13.18;7.72;;;;;;;15.92;78.84;96156.94;5113002;28;20031;-68
2021/06/22 03:12:21;;;;;;;17.42;5.93;;;;;;;16.00;78.06;96156.47;5113038;28;20032;-67
2021/06/22 03:14:47;;;;;;;6.55;5.95;;;;;;;16.06;77.78;96154.38;5112996;28;20023;-68
2021/06/22 03:17:13;;;;;;;10.98;8.68;;;;;;;16.07;78.43;96156.91;5112824;28;20094;-66
2021/06/22 03:19:38;;;;;;;15.93;8.32;;;;;;;16.15;79.25;96159.03;5113036;28;20073;-67
2021/06/22 03:22:04;;;;;;;11.45;7.93;;;;;;;16.14;79.13;96160.81;5116569;28;20024;-66
2021/06/22 03:24:30;;;;;;;18.08;5.85;;;;;;;16.29;78.75;96163.41;5116865;28;20020;-69
2021/06/22 03:26:55;;;;;;;9.05;5.90;;;;;;;16.49;78.26;96174.38;5116761;28;20107;-67
2021/06/22 03:29:23;;;;;;;9.52;5.72;;;;;;;16.77;78.57;96178.63;5116752;28;20024;-67
2021/06/22 03:31:48;;;;;;;11.52;5.05;;;;;;;17.15;76.82;96176.94;5116721;28;20027;-65
2021/06/22 03:34:14;;;;;;;12.30;4.43;;;;;;;17.57;75.32;96181.06;5116557;28;20028;-68
2021/06/22 03:36:39;;;;;;;6.70;4.45;;;;;;;17.96;74.13;96178.25;5116694;28;20048;-64
2021/06/22 03:39:07;;;;;;;7.88;4.22;;;;;;;18.19;73.16;96175.75;5116597;28;20028;-66
2021/06/22 03:41:34;;;;;;;10.25;4.70;;;;;;;18.27;73.73;96173.34;5116514;28;20373;-65
2021/06/22 03:44:00;;;;;;;6.40;4.30;;;;;;;18.48;73.65;96183.28;5116298;28;20030;-71
2021/06/22 03:46:25;;;;;;;7.25;4.10;;;;;;;18.85;72.49;96176.97;5116349;28;20481;-69
2021/06/22 03:48:51;;;;;;;6.78;4.18;;;;;;;19.24;71.82;96189.06;5116350;28;20102;-70
2021/06/22 03:51:17;;;;;;;7.07;3.80;;;;;;;19.68;70.77;96189.13;5116395;28;20363;-64
2021/06/22 03:53:42;;;;;;;8.10;3.63;;;;;;;20.09;69.21;96178.78;5116277;28;20047;-63
2021/06/22 03:56:09;;;;;;;7.80;3.67;;;;;;;20.45;68.01;96174.03;5116317;28;20023;-68
2021/06/22 03:58:35;;;;;;;7.03;3.80;;;;;;;20.87;67.29;96179.44;5116052;28;20024;-67
2021/06/22 04:01:01;;;;;;;4.80;3.05;;;;;;;21.28;65.87;96179.53;5116153;28;20020;-73
2021/06/22 04:03:27;;;;;;;5.20;3.20;;;;;;;21.66;65.07;96180.63;5116079;28;20043;-68
2021/06/22 04:05:52;;;;;;;7.63;2.70;;;;;;;22.08;64.60;96184.06;5115920;28;20385;-69
2021/06/22 04:08:18;;;;;;;5.70;3.40;;;;;;;22.39;63.63;96180.44;5115913;28;20032;-70
2021/06/22 04:10:43;;;;;;;5.63;3.25;;;;;;;22.72;63.00;96187.13;5115854;28;20132;-66
2021/06/22 04:13:09;;;;;;;11.23;2.72;;;;;;;23.03;61.82;96183.38;5115881;28;20023;-69
2021/06/22 04:15:35;;;;;;;6.25;3.03;;;;;;;23.32;60.96;96186.94;5115869;28;20421;-65
2021/06/22 04:18:02;;;;;;;5.95;3.05;;;;;;;23.65;60.06;96199.88;5115610;28;20059;-79
2021/06/22 04:20:28;;;;;;;6.63;2.90;;;;;;;23.93;59.24;96202.53;5115694;28;20024;-74
2021/06/22 04:22:54;;;;;;;9.23;3.05;;;;;;;24.19;59.38;96209.81;5115576;28;20103;-78
2021/06/22 04:25:20;;;;;;;4.93;2.72;;;;;;;24.50;58.74;96200.56;5115578;28;20026;-72
2021/06/22 04:27:45;;;;;;;4.75;2.67;;;;;;;24.74;57.66;96206.09;5115564;28;20016;-68
2021/06/22 04:30:11;;;;;;;10.07;2.65;;;;;;;24.93;56.84;96206.09;5115752;28;20027;-77
2021/06/22 04:32:37;;;;;;;6.75;2.88;;;;;;;25.18;56.65;96204.41;5114939;28;20030;-77
2021/06/22 04:35:03;;;;;;;8.85;2.85;;;;;;;25.45;56.86;96205.22;5115437;28;20024;-74
2021/06/22 04:37:28;;;;;;;7.55;3.05;;;;;;;25.73;56.43;96204.16;5115368;28;20020;-71
2021/06/22 04:39:54;;;;;;;6.25;2.80;;;;;;;25.93;55.98;96201.22;5115358;28;20485;-72
2021/06/22 04:42:20;;;;;;;8.45;2.78;;;;;;;26.15;55.44;96197.06;5115431;28;20024;-70
2021/06/22 04:44:46;;;;;;;5.30;3.35;;;;;;;26.40;55.53;96202.50;5115216;28;20473;-73
2021/06/22 04:47:12;;;;;;;9.25;3.33;;;;;;;26.64;55.44;96195.47;5115344;28;20024;-73
2021/06/22 04:49:37;;;;;;;6.72;2.60;;;;;;;26.92;54.67;96196.94;5115059;28;20023;-71
2021/06/22 04:52:03;;;;;;;10.90;3.13;;;;;;;27.15;54.17;96198.94;5115241;28;20027;-67
2021/06/22 04:54:29;;;;;;;6.90;2.92;;;;;;;27.34;54.57;96203.91;5115080;28;20440;-69
2021/06/22 04:56:55;;;;;;;4.38;3.05;;;;;;;27.58;53.87;96204.00;5115235;28;20035;-78
2021/06/22 04:59:20;;;;;;;3.45;2.40;;;;;;;27.75;53.12;96208.31;5114982;28;20493;-78
2021/06/22 05:01:46;;;;;;;7.22;2.83;;;;;;;28.00;53.42;96210.84;5115219;28;20034;-68
2021/06/22 05:04:12;;;;;;;5.13;2.97;;;;;;;28.24;53.86;96214.41;5114827;28;20027;-72
2021/06/22 05:06:39;;;;;;;4.95;2.50;;;;;;;28.45;52.41;96210.28;5114767;28;20023;-75
2021/06/22 05:09:05;;;;;;;4.72;2.80;;;;;;;28.59;49.58;96208.63;5114828;28;20027;-65
2021/06/22 05:11:30;;;;;;;4.00;2.60;;;;;;;28.81;49.34;96207.97;5114680;28;20019;-68
2021/06/22 05:13:56;;;;;;;5.78;2.88;;;;;;;28.98;50.89;96201.44;5114604;28;20023;-67
2021/06/22 05:16:22;;;;;;;6.53;3.22;;;;;;;29.19;50.23;96207.13;5114386;28;20100;-68
2021/06/22 05:18:48;;;;;;;3.30;2.72;;;;;;;29.39;50.57;96210.94;5114656;28;20028;-74
2021/06/22 05:21:14;;;;;;;6.00;2.90;;;;;;;29.59;48.99;96223.03;5114676;28;20100;-69
2021/06/22 05:23:41;;;;;;;4.85;2.95;;;;;;;29.64;48.24;96225.97;5114384;28;20427;-67
2021/06/22 05:26:07;;;;;;;3.70;2.88;;;;;;;29.82;48.14;96217.50;5114339;28;20119;-69
2021/06/22 05:28:32;;;;;;;2.90;2.42;;;;;;;29.94;48.54;96225.94;5114282;28;20059;-71
2021/06/22 05:30:58;;;;;;;6.97;2.95;;;;;;;29.96;50.12;96231.97;5114375;28;20062;-71
2021/06/22 05:33:24;;;;;;;5.00;3.05;;;;;;;30.09;49.47;96227.75;5114265;28;20103;-71
2021/06/22 05:35:50;;;;;;;4.88;2.88;;;;;;;30.12;48.85;96219.28;5114188;28;20031;-72
2021/06/22 05:38:16;;;;;;;5.47;2.70;;;;;;;30.39;48.78;96225.00;5114206;28;20015;-71
2021/06/22 05:40:42;;;;;;;3.80;3.00;;;;;;;30.49;48.66;96230.91;5114106;28;20477;-69
2021/06/22 05:43:09;;;;;;;8.85;3.00;;;;;;;30.76;47.55;96235.75;5113902;28;20039;-75
2021/06/22 05:45:35;;;;;;;3.60;2.97;;;;;;;30.97;48.28;96231.34;5113418;28;20027;-75
2021/06/22 05:48:00;;;;;;;5.95;3.25;;;;;;;31.15;47.38;96233.53;5113987;28;20394;-74
2021/06/22 05:50:26;;;;;;;5.38;2.60;;;;;;;31.15;47.15;96226.28;5114035;28;20028;-78
2021/06/22 05:52:54;;;;;;;8.23;3.35;;;;;;;31.01;47.50;96238.88;5113933;28;20027;-66
2021/06/22 05:55:22;;;;;;;3.35;2.90;;;;;;;30.74;46.12;96243.16;5113786;28;20051;-66
2021/06/22 05:57:49;;;;;;;9.15;3.25;;;;;;;30.80;46.49;96237.03;5113917;28;20027;-71
2021/06/22 06:00:16;;;;;;;4.25;3.20;;;;;;;31.08;45.70;96235.38;5113812;28;20390;-68
2021/06/22 06:02:43;;;;;;;4.32;3.17;;;;;;;31.38;46.07;96230.63;5113789;28;20019;-70
2021/06/22 06:05:11;;;;;;;4.25;3.40;;;;;;;31.64;45.79;96234.50;5113589;28;20389;-71
2021/06/22 06:07:36;;;;;;;5.03;3.25;;;;;;;31.78;45.23;96234.56;5113726;28;20240;-69
2021/06/22 06:10:04;;;;;;;5.35;3.30;;;;;;;32.00;44.34;96229.06;5113766;28;20030;-69
2021/06/22 06:12:29;;;;;;;9.13;3.60;;;;;;;32.11;43.97;96241.19;5113642;28;20107;-68
2021/06/22 06:14:55;;;;;;;3.45;3.03;;;;;;;32.33;44.69;96247.28;5113554;28;20119;-68
2021/06/22 06:17:21;;;;;;;4.78;3.70;;;;;;;32.54;43.57;96240.06;5113462;28;20116;-70
2021/06/22 06:19:46;;;;;;;7.50;3.30;;;;;;;32.69;43.43;96236.31;5113684;28;20028;-66
2021/06/22 06:22:12;;;;;;;7.55;3.67;;;;;;;32.80;42.97;96233.00;5113521;28;20059;-68
2021/06/22 06:24:38;;;;;;;5.32;3.50;;;;;;;32.85;43.90;96240.50;5113434;28;20028;-64
2021/06/22 06:27:12;;;;;;;7.35;3.55;;;;;;;32.94;42.31;96243.81;5113510;28;20028;-66
2021/06/22 06:29:59;;;;;;;6.63;3.70;;;;;;;32.99;43.18;96239.44;5113474;28;20035;-69
2021/06/22 06:32:25;;;;;;;6.25;3.58;;;;;;;33.09;42.46;96239.06;5113423;28;20028;-67
2021/06/22 06:34:50;;;;;;;9.98;3.60;;;;;;;33.17;42.56;96242.59;5113426;28;20030;-70
2021/06/22 06:37:17;;;;;;;5.05;3.50;;;;;;;33.11;42.18;96236.97;5113414;28;20020;-70
2021/06/22 06:39:43;;;;;;;5.63;3.63;;;;;;;33.07;42.07;96241.13;5095210;28;20385;-65
2021/06/22 06:42:09;;;;;;;4.45;3.38;;;;;;;33.19;42.05;96240.53;5113420;28;20035;-71
2021/06/22 06:44:34;;;;;;;3.97;3.47;;;;;;;32.98;43.24;96242.34;5113282;28;20035;-65
2021/06/22 06:47:00;;;;;;;5.80;3.95;;;;;;;33.03;42.90;96248.84;5113312;28;20028;-70
2021/06/22 06:49:25;;;;;;;4.18;3.05;;;;;;;33.19;42.69;96238.63;5113328;28;20054;-71
2021/06/22 06:51:51;;;;;;;6.95;3.35;;;;;;;33.38;42.11;96242.34;5113411;28;20023;-69
2021/06/22 06:54:17;;;;;;;4.82;3.50;;;;;;;33.48;41.72;96239.22;5113271;28;20107;-72
2021/06/22 06:56:42;;;;;;;4.32;3.70;;;;;;;33.54;41.99;96240.25;5116529;28;20081;-73
2021/06/22 06:59:08;;;;;;;5.13;3.17;;;;;;;33.42;41.55;96240.06;5117310;28;20032;-74
2021/06/22 07:01:33;;;;;;;6.13;3.40;;;;;;;33.48;41.69;96241.94;5117257;28;20049;-64
2021/06/22 07:03:59;;;;;;;8.02;4.00;;;;;;;33.67;42.57;96255.66;5117086;28;20055;-68
2021/06/22 07:06:25;;;;;;;5.93;3.50;;;;;;;33.80;42.33;96246.66;5117283;28;20023;-69
2021/06/22 07:08:51;;;;;;;4.85;3.72;;;;;;;33.70;41.48;96252.53;5117117;28;20048;-71
2021/06/22 07:11:20;;;;;;;6.75;4.07;;;;;;;33.63;41.87;96252.56;5117220;28;20550;-69
2021/06/22 07:13:46;;;;;;;9.13;3.70;;;;;;;33.75;41.65;96257.31;5117068;28;20034;-67
2021/06/22 07:16:12;;;;;;;8.20;4.00;;;;;;;33.76;42.23;96253.53;5116705;28;20032;-64
2021/06/22 07:18:37;;;;;;;5.15;3.95;;;;;;;33.78;41.96;96262.31;5116845;28;20035;-72
2021/06/22 07:21:03;;;;;;;7.18;4.38;;;;;;;33.89;40.04;96258.09;5116835;28;20019;-71
2021/06/22 07:23:29;;;;;;;4.20;3.85;;;;;;;33.94;41.10;96263.69;5116897;28;20034;-70
2021/06/22 07:25:55;;;;;;;7.68;4.28;;;;;;;33.86;41.63;96266.66;5098589;28;20032;-69
2021/06/22 07:28:21;;;;;;;5.78;4.18;;;;;;;33.92;41.64;96265.81;5116746;28;20489;-72
2021/06/22 07:30:47;;;;;;;4.63;4.25;;;;;;;34.02;41.54;96262.63;5116599;28;20454;-69
2021/06/22 07:33:12;;;;;;;5.40;3.90;;;;;;;34.12;40.58;96271.16;5116619;28;20020;-64
2021/06/22 07:35:38;;;;;;;5.18;3.83;;;;;;;34.30;39.17;96269.63;5116650;28;20053;-66
2021/06/22 07:38:04;;;;;;;6.15;4.32;;;;;;;34.50;40.83;96272.22;5116533;28;20023;-68
2021/06/22 07:40:30;;;;;;;12.73;4.85;;;;;;;34.29;41.10;96270.69;5116561;28;20027;-68
2021/06/22 07:42:57;;;;;;;6.85;3.72;;;;;;;34.49;41.47;96278.69;5116511;28;20015;-70
2021/06/22 07:45:23;;;;;;;8.43;3.70;;;;;;;34.46;39.73;96275.59;5116309;28;20054;-72
2021/06/22 07:47:50;;;;;;;5.30;3.80;;;;;;;34.60;39.64;96273.63;5116299;28;20019;-71
2021/06/22 07:50:16;;;;;;;3.90;3.60;;;;;;;34.68;39.45;96276.13;5116295;28;20397;-65
2021/06/22 07:52:43;;;;;;;4.60;3.88;;;;;;;34.78;39.35;96276.47;5116190;28;20019;-70
2021/06/22 07:55:13;;;;;;;5.25;4.00;;;;;;;34.93;39.79;96283.44;5097922;28;20481;-73
2021/06/22 07:57:41;;;;;;;5.80;4.10;;;;;;;34.97;40.74;96278.41;5116140;28;20020;-68
2021/06/22 08:00:10;;;;;;;4.68;3.90;;;;;;;34.79;38.53;96280.00;5116093;28;20020;-68
2021/06/22 08:02:36;;;;;;;6.75;4.13;;;;;;;34.52;37.69;96286.41;5116073;28;20038;-69
2021/06/22 08:05:02;;;;;;;7.53;4.30;;;;;;;34.49;40.71;96294.16;5115996;28;20027;-71
2021/06/22 08:07:27;;;;;;;6.80;3.33;;;;;;;34.41;40.76;96297.97;5114969;28;20023;-68
2021/06/22 08:09:53;;;;;;;5.97;4.15;;;;;;;34.46;39.67;96289.97;5115872;28;20114;-71
2021/06/22 08:12:18;;;;;;;4.50;3.70;;;;;;;34.65;39.88;96287.38;5115890;28;20122;-67
2021/06/22 08:14:45;;;;;;;4.50;4.10;;;;;;;34.71;40.76;96291.97;5115857;28;20031;-65
2021/06/22 08:17:11;;;;;;;6.07;4.00;;;;;;;34.79;40.10;96288.97;5115590;28;20043;-76
2021/06/22 08:19:37;;;;;;;7.95;4.28;;;;;;;34.60;40.31;96298.88;5115762;28;20081;-69
2021/06/22 08:22:03;;;;;;;6.65;4.03;;;;;;;34.36;41.58;96286.91;5115732;28;20427;-71
2021/06/22 08:24:28;;;;;;;9.13;4.60;;;;;;;34.51;39.14;96287.47;5115690;28;20076;-69
2021/06/22 08:26:54;;;;;;;6.47;4.40;;;;;;;34.23;41.21;96279.69;5115599;28;20031;-68
2021/06/22 08:29:20;;;;;;;10.60;4.35;;;;;;;34.14;40.85;96285.38;5115492;28;20024;-64
2021/06/22 08:31:45;;;;;;;5.35;4.50;;;;;;;34.31;41.41;96295.69;5115629;28;20011;-64
2021/06/22 08:34:11;;;;;;;7.97;4.18;;;;;;;34.26;40.68;96287.38;5115537;28;20032;-75
2021/06/22 08:36:36;;;;;;;6.30;4.32;;;;;;;34.21;40.53;96295.31;5115417;28;20389;-72
2021/06/22 08:39:02;;;;;;;7.07;4.07;;;;;;;34.33;40.96;96290.06;5115306;28;20406;-68
2021/06/22 08:41:29;;;;;;;3.95;3.65;;;;;;;34.16;40.38;96290.56;5115277;28;20016;-73
2021/06/22 08:43:57;;;;;;;9.75;4.10;;;;;;;34.26;39.20;96292.81;5115048;28;20024;-68
2021/06/22 08:46:23;;;;;;;7.10;4.43;;;;;;;34.16;40.83;96293.28;5115097;28;20028;-72
2021/06/22 08:48:49;;;;;;;4.95;4.45;;;;;;;34.02;39.92;96284.31;5115148;28;20023;-73
2021/06/22 08:51:15;;;;;;;8.40;4.10;;;;;;;33.90;40.43;96289.59;5115188;28;20059;-73
2021/06/22 08:53:41;;;;;;;7.85;4.57;;;;;;;33.85;42.88;96290.22;5096846;28;20030;-76
2021/06/22 08:56:06;;;;;;;6.28;4.15;;;;;;;33.48;38.89;96287.16;5115163;28;20024;-70
2021/06/22 08:58:33;;;;;;;5.28;3.97;;;;;;;33.34;40.86;96284.47;5115059;28;20031;-70
2021/06/22 09:00:58;;;;;;;4.40;4.00;;;;;;;33.56;41.23;96286.94;5114968;28;20111;-71
2021/06/22 09:03:26;;;;;;;7.47;4.65;;;;;;;33.12;41.31;96290.09;5114933;28;20043;-74
2021/06/22 09:06:03;;;;;;;7.40;4.20;;;;;;;33.46;43.06;96289.22;5114650;28;20039;-73
2021/06/22 09:08:31;;;;;;;5.30;4.35;;;;;;;33.61;43.10;96286.31;5114793;28;20035;-73
2021/06/22 09:11:10;;;;;;;5.00;4.32;;;;;;;33.80;42.60;96286.50;5096371;28;20390;-70
2021/06/22 09:13:37;;;;;;;5.57;4.57;;;;;;;33.99;41.48;96287.47;5114837;28;20024;-70
2021/06/22 09:16:06;;;;;;;6.68;4.18;;;;;;;34.00;41.48;96292.69;5114329;28;20470;-65
2021/06/22 09:18:45;;;;;;;6.57;4.10;;;;;;;33.91;40.95;96292.09;5114481;28;20046;-72
2021/06/22 09:21:22;;;;;;;4.77;4.33;;;;;;;33.92;42.92;96287.50;5114755;28;20068;-68
2021/06/22 09:23:48;;;;;;;6.25;4.53;;;;;;;34.06;41.41;96287.44;5114878;28;20040;-70
2021/06/22 09:26:31;;;;;;;6.03;3.67;;;;;;;34.06;40.07;96288.28;5114366;28;20123;-66
2021/06/22 09:29:09;;;;;;;7.15;3.75;;;;;;;34.16;41.27;96288.66;5114397;28;20043;-67
2021/06/22 09:31:35;;;;;;;10.27;4.57;;;;;;;34.08;41.76;96288.06;5114574;28;20028;-63
2021/06/22 09:34:00;;;;;;;5.85;4.28;;;;;;;33.99;41.39;96282.03;5114395;28;20019;-73
2021/06/22 09:36:29;;;;;;;6.40;4.10;;;;;;;34.08;42.05;96282.63;5114372;28;20039;-66
2021/06/22 09:39:08;;;;;;;5.50;4.28;;;;;;;34.14;41.13;96282.66;5114280;28;20112;-69
2021/06/22 09:41:40;;;;;;;5.65;4.13;;;;;;;33.80;40.58;96284.63;5114181;28;20548;-71
2021/06/22 09:44:11;;;;;;;7.88;4.47;;;;;;;33.41;43.80;96282.56;5114090;28;20106;-68
2021/06/22 09:46:46;;;;;;;11.73;4.80;;;;;;;33.15;43.10;96280.72;5114290;28;20023;-69
2021/06/22 09:49:22;;;;;;;5.60;5.10;;;;;;;32.82;43.41;96290.47;5114195;28;20453;-67
2021/06/22 09:51:58;;;;;;;5.25;4.75;;;;;;;32.43;43.56;96292.88;5113987;28;20052;-67
2021/06/22 09:54:29;;;;;;;7.03;5.30;;;;;;;32.22;45.68;96296.53;5096174;28;20063;-68
2021/06/22 09:57:03;;;;;;;6.90;5.47;;;;;;;31.82;46.38;96292.59;5113990;28;20016;-74
2021/06/22 09:59:32;;;;;;;6.18;5.57;;;;;;;31.78;46.65;96291.31;5113973;28;20032;-64
2021/06/22 10:02:04;;;;;;;8.85;5.45;;;;;;;32.06;45.84;96292.31;5113769;28;20047;-64
2021/06/22 10:04:29;;;;;;;9.70;5.28;;;;;;;32.15;45.06;96293.81;5113656;28;20055;-74
2021/06/22 10:06:58;;;;;;;6.18;5.03;;;;;;;32.37;45.53;96293.69;5113784;28;20050;-62
2021/06/22 10:09:34;;;;;;;7.40;4.80;;;;;;;32.48;44.43;96290.41;5113663;28;20103;-69
2021/06/22 10:12:02;;;;;;;7.72;5.22;;;;;;;32.13;45.51;96283.19;5113608;28;20016;-65
2021/06/22 10:14:36;;;;;;;10.95;5.68;;;;;;;31.87;45.72;96268.50;5113610;28;20049;-70
2021/06/22 10:17:04;;;;;;;5.80;5.30;;;;;;;31.72;47.22;96265.94;5113334;28;20035;-65
2021/06/22 10:19:31;;;;;;;5.75;5.05;;;;;;;31.58;45.96;96261.50;5113562;28;20099;-66
2021/06/22 10:21:58;;;;;;;6.68;4.97;;;;;;;31.57;45.83;96266.03;5113650;28;20032;-68
2021/06/22 10:24:24;;;;;;;5.93;5.43;;;;;;;31.50;46.76;96273.28;5113579;28;20102;-65
2021/06/22 10:26:51;;;;;;;6.45;4.65;;;;;;;31.48;46.41;96270.78;5113469;28;20055;-66
2021/06/22 10:29:19;;;;;;;5.47;4.90;;;;;;;31.59;45.83;96274.81;5113488;28;20015;-68
2021/06/22 10:31:47;;;;;;;7.22;5.45;;;;;;;31.78;46.68;96275.09;5113130;28;20015;-71
2021/06/22 10:34:13;;;;;;;9.70;5.50;;;;;;;31.70;44.53;96267.16;5113598;28;20055;-73
2021/06/22 10:37:17;;;;;;;11.98;5.82;;;;;;;31.65;44.83;96265.91;5113428;28;20051;-74
2021/06/22 10:39:56;;;;;;;6.70;5.00;;;;;;;31.62;46.61;96260.06;5083584;28;20500;-65
2021/06/22 10:42:22;;;;;;;6.93;5.43;;;;;;;31.45;46.38;96262.25;5113478;28;20098;-67
2021/06/22 10:45:03;;;;;;;8.13;5.10;;;;;;;31.25;46.25;96250.25;5113334;28;20518;-65
2021/06/22 10:47:32;;;;;;;5.70;5.20;;;;;;;31.35;46.42;96255.34;5113231;28;20020;-70
2021/06/22 10:50:04;;;;;;;5.95;5.10;;;;;;;31.52;45.65;96255.84;5113271;28;20016;-68
2021/06/22 10:52:42;;;;;;;7.85;5.55;;;;;;;31.63;48.37;96249.03;5113232;28;20039;-72
2021/06/22 10:55:36;;;;;;;9.35;5.72;;;;;;;31.59;46.82;96252.34;5113234;28;20020;-71
2021/06/22 11:00:31;;;;;;;10.48;5.68;;;;;;;31.15;45.17;96249.75;5113313;28;20031;-69
2021/06/22 11:03:07;;;;;;;8.13;5.00;;;;;;;30.66;45.47;96251.41;5113185;28;20198;-69
2021/06/22 11:05:41;;;;;;;7.68;6.00;;;;;;;30.41;46.62;96249.06;5113167;28;20073;-73
2021/06/22 11:08:16;;;;;;;7.50;6.03;;;;;;;30.27;47.78;96248.94;5113210;28;20068;-70
2021/06/22 11:11:08;;;;;;;7.70;6.35;;;;;;;30.04;50.33;96246.38;5113097;28;20043;-69
2021/06/22 11:13:34;;;;;;;11.15;6.35;;;;;;;30.14;49.06;96247.75;5113126;28;20028;-71
2021/06/22 11:16:04;;;;;;;9.43;6.10;;;;;;;30.42;48.86;96245.34;5112884;28;20478;-63
2021/06/22 11:19:10;;;;;;;6.18;5.55;;;;;;;30.33;46.44;96242.78;5113019;28;20032;-75
2021/06/22 11:21:43;;;;;;;6.85;5.82;;;;;;;30.21;47.85;96245.16;5010774;28;20116;-72
2021/06/22 11:24:15;;;;;;;9.25;6.38;;;;;;;30.17;48.33;96248.41;5099774;28;20071;-70
2021/06/22 11:26:42;;;;;;;7.22;5.82;;;;;;;30.36;50.05;96247.78;5112975;28;20375;-70
2021/06/22 11:29:13;;;;;;;8.02;5.63;;;;;;;30.48;47.42;96248.13;5112868;28;20059;-67
2021/06/22 11:31:53;;;;;;;8.65;5.72;;;;;;;30.71;48.22;96247.09;5112840;28;20039;-68
2021/06/22 11:34:34;;;;;;;11.07;5.85;;;;;;;30.84;47.23;96245.56;5113042;28;20112;-73
2021/06/22 11:37:06;;;;;;;5.55;5.15;;;;;;;30.88;45.64;96233.38;5112947;28;20024;-70